createdAt,value
2018-10-16T05:06:35.508Z,22.35
2018-10-16T05:09:07.308Z,13.29
2018-10-16T05:11:47.818Z,11.33
2018-10-16T05:14:18.206Z,10.31
2018-10-16T05:16:48.636Z,10.59
2018-10-16T05:19:19.015Z,10.02
2018-10-16T05:21:49.337Z,9.67
2018-10-16T05:24:19.633Z,9.13
2018-10-16T05:26:49.948Z,8.81
2018-10-16T05:29:20.309Z,9.31
2018-10-16T05:31:50.638Z,9.44
2018-10-16T05:34:27.478Z,9.39
2018-10-16T05:36:57.844Z,9.48
2018-10-16T05:39:28.180Z,9.51
2018-10-16T05:41:58.508Z,9.75
2018-10-16T05:44:28.832Z,9.49
2018-10-16T05:46:59.233Z,9.34
2018-10-16T05:49:29.545Z,9.57
2018-10-16T05:51:59.855Z,9.70
2018-10-16T05:54:30.193Z,9.85
2018-10-16T05:57:00.644Z,9.95
2018-10-16T05:59:30.950Z,9.38
2018-10-16T06:02:01.270Z,9.72
2018-10-16T06:04:31.584Z,9.44
2018-10-16T06:07:01.992Z,9.63
2018-10-16T06:09:32.387Z,9.68
2018-10-16T06:12:02.762Z,9.68
2018-10-16T06:14:33.067Z,9.32
2018-10-16T06:17:03.409Z,9.54
2018-10-16T06:19:33.719Z,9.71
2018-10-16T06:22:04.037Z,9.60
2018-10-16T06:24:34.395Z,10.00
2018-10-16T06:27:04.677Z,9.56
2018-10-16T06:29:34.992Z,9.31
2018-10-16T06:32:05.439Z,9.06
2018-10-16T06:34:35.710Z,9.67
2018-10-16T06:37:06.335Z,9.98
2018-10-16T06:39:36.648Z,10.18
2018-10-16T06:42:07.102Z,10.20
2018-10-16T06:44:37.346Z,10.62
2018-10-16T06:47:07.804Z,10.56
2018-10-16T06:49:38.014Z,11.32
2018-10-16T06:52:08.333Z,11.87
2018-10-16T06:54:38.777Z,11.80
2018-10-16T06:57:09.171Z,12.12
2018-10-16T06:59:39.537Z,11.89
2018-10-16T07:02:10.078Z,14.92
2018-10-16T07:04:40.394Z,17.94
2018-10-16T07:07:12.096Z,20.51
2018-10-16T07:09:42.641Z,22.44
2018-10-16T07:12:13.034Z,21.03
2018-10-16T07:14:43.428Z,18.27
2018-10-16T07:17:13.735Z,18.27
2018-10-16T07:19:44.149Z,16.60
2018-10-16T07:22:14.480Z,16.25
2018-10-16T07:24:44.789Z,15.08
2018-10-16T07:27:15.111Z,15.69
2018-10-16T07:29:45.450Z,16.12
2018-10-16T07:32:15.776Z,17.21
2018-10-16T07:34:46.208Z,17.48
2018-10-16T07:37:16.643Z,18.00
2018-10-16T07:39:47.103Z,15.77
2018-10-16T07:42:17.432Z,14.07
2018-10-16T07:44:47.745Z,14.15
2018-10-16T07:47:18.098Z,14.24
2018-10-16T07:49:48.395Z,14.17
2018-10-16T07:52:18.721Z,14.55
2018-10-16T07:54:49.039Z,14.33
2018-10-16T07:57:19.438Z,14.14
2018-10-16T07:59:49.804Z,14.52
2018-10-16T08:02:20.034Z,14.44
2018-10-16T08:04:50.352Z,14.57
2018-10-16T08:07:20.763Z,13.95
2018-10-16T08:09:51.102Z,13.21
2018-10-16T08:12:21.449Z,14.41
2018-10-16T08:14:51.795Z,15.51
2018-10-16T08:17:22.221Z,15.21
2018-10-16T08:19:52.582Z,16.83
2018-10-16T08:22:22.948Z,18.80
2018-10-16T08:24:53.261Z,24.01
2018-10-16T08:27:23.695Z,25.48
2018-10-16T08:29:54.094Z,27.37
2018-10-16T08:32:24.446Z,28.43
2018-10-16T08:34:54.864Z,29.27
2018-10-16T08:38:15.353Z,28.44
2018-10-16T08:40:45.736Z,28.94
2018-10-16T08:43:51.041Z,28.60
2018-10-16T08:46:57.229Z,28.29
2018-10-16T08:50:03.644Z,28.86
2018-10-16T08:52:33.981Z,29.92
2018-10-16T08:55:04.481Z,31.19
2018-10-16T08:57:34.770Z,29.21
2018-10-16T09:00:05.141Z,28.85
2018-10-16T09:02:35.453Z,29.44
2018-10-16T09:05:06.612Z,29.71
2018-10-16T09:07:36.921Z,30.37
2018-10-16T09:10:07.234Z,30.55
2018-10-16T09:12:37.606Z,31.33
2018-10-16T09:15:08.630Z,30.48
2018-10-16T09:17:39.041Z,30.00
2018-10-16T09:20:09.672Z,28.41
2018-10-16T09:22:40.005Z,28.99
2018-10-16T09:25:11.090Z,31.60
2018-10-16T09:27:41.533Z,31.73
2018-10-16T09:30:15.829Z,33.20
2018-10-16T09:32:48.010Z,31.04
2018-10-16T09:35:18.400Z,31.58
2018-10-16T09:37:48.820Z,34.87
2018-10-16T09:40:19.170Z,31.97
2018-10-16T09:42:49.522Z,31.87
2018-10-16T09:45:19.845Z,32.29
2018-10-16T09:47:50.185Z,30.74
2018-10-16T09:50:20.621Z,33.02
2018-10-16T09:52:50.955Z,31.59
2018-10-16T09:55:21.352Z,33.69
2018-10-16T09:57:51.683Z,31.73
2018-10-16T10:00:39.641Z,34.15
2018-10-16T10:03:09.942Z,34.87
2018-10-16T10:05:40.333Z,33.96
2018-10-16T10:08:10.673Z,34.00
2018-10-16T10:10:41.019Z,34.38
2018-10-16T10:13:11.455Z,34.24
2018-10-16T10:15:41.799Z,33.74
2018-10-16T10:18:12.181Z,34.47
2018-10-16T10:20:42.514Z,32.85
2018-10-16T10:23:12.970Z,32.02
2018-10-16T10:25:43.259Z,32.96
2018-10-16T10:28:13.652Z,33.90
2018-10-16T10:30:44.040Z,31.78
2018-10-16T10:33:14.443Z,34.38
2018-10-16T10:35:44.833Z,34.90
2018-10-16T10:38:15.543Z,33.06
2018-10-16T10:40:45.921Z,34.03
2018-10-16T10:43:16.273Z,35.25
2018-10-16T10:45:46.651Z,34.03
2018-10-16T10:48:17.022Z,33.43
2018-10-16T10:50:47.594Z,34.02
2018-10-16T10:53:17.834Z,34.06
2018-10-16T10:55:48.102Z,33.32
2018-10-16T10:58:18.517Z,34.09
2018-10-16T11:00:49.003Z,33.85
2018-10-16T11:03:19.549Z,33.95
2018-10-16T11:05:49.720Z,33.20
2018-10-16T11:08:20.078Z,34.06
2018-10-16T11:10:50.428Z,34.38
2018-10-16T11:13:20.815Z,31.91
2018-10-16T11:15:51.168Z,33.74
2018-10-16T11:18:21.631Z,33.85
2018-10-16T11:20:52.062Z,34.77
2018-10-16T11:23:22.352Z,36.31
2018-10-16T11:25:52.706Z,35.69
2018-10-16T11:28:23.113Z,34.15
2018-10-16T11:30:53.452Z,33.90
2018-10-16T11:33:23.906Z,36.48
2018-10-16T11:35:54.253Z,34.24
2018-10-16T11:38:24.639Z,34.25
2018-10-16T11:40:54.982Z,37.28
2018-10-16T11:43:25.350Z,36.59
2018-10-16T11:45:55.758Z,33.55
2018-10-16T11:48:26.208Z,36.04
2018-10-16T11:50:56.565Z,35.70
2018-10-16T11:53:26.982Z,37.28
2018-10-16T11:55:57.379Z,34.56
2018-10-16T11:58:27.732Z,35.21
2018-10-16T12:00:58.091Z,35.96
2018-10-16T12:03:28.471Z,32.54
2018-10-16T12:05:58.980Z,35.01
2018-10-16T12:08:29.284Z,32.90
2018-10-16T12:10:59.646Z,35.22
2018-10-16T12:13:29.973Z,36.09
2018-10-16T12:16:00.287Z,35.08
2018-10-16T12:18:33.583Z,31.69
2018-10-16T12:21:20.721Z,33.30
2018-10-16T12:23:51.095Z,35.66
2018-10-16T12:26:21.919Z,35.19
2018-10-16T12:28:52.228Z,33.34
2018-10-16T12:31:22.532Z,33.37
2018-10-16T12:33:52.919Z,33.37
2018-10-16T12:36:23.268Z,33.16
2018-10-16T12:38:53.708Z,31.92
2018-10-16T12:41:23.978Z,31.23
2018-10-16T12:43:54.394Z,34.02
2018-10-16T12:46:24.640Z,32.01
2018-10-16T12:48:54.973Z,31.69
2018-10-16T12:51:25.339Z,30.35
2018-10-16T12:53:55.687Z,30.86
2018-10-16T12:56:25.993Z,31.62
2018-10-16T12:58:56.454Z,32.56
2018-10-16T13:01:26.767Z,32.09
2018-10-16T13:03:57.125Z,32.75
2018-10-16T13:06:27.470Z,31.88
2018-10-16T13:08:57.854Z,30.02
2018-10-16T13:11:28.275Z,29.17
2018-10-16T13:13:58.698Z,30.79
2018-10-16T13:16:29.037Z,29.01
2018-10-16T13:18:59.404Z,27.87
2018-10-16T13:21:29.772Z,26.90
2018-10-16T13:24:00.216Z,26.50
2018-10-16T13:26:30.544Z,26.83
2018-10-16T13:29:01.072Z,25.99
2018-10-16T13:31:31.298Z,25.77
2018-10-16T13:34:01.802Z,25.47
2018-10-16T13:36:32.018Z,25.58
2018-10-16T13:39:02.392Z,25.77
2018-10-16T13:41:32.727Z,25.28
2018-10-16T13:44:03.076Z,25.80
2018-10-16T13:46:33.473Z,25.17
2018-10-16T13:49:03.693Z,25.48
2018-10-16T13:51:34.039Z,25.33
2018-10-16T13:54:04.494Z,25.18
2018-10-16T13:56:34.726Z,24.92
2018-10-16T13:59:05.037Z,24.72
2018-10-16T14:01:35.464Z,24.77
2018-10-16T14:04:05.842Z,24.84
2018-10-16T14:06:36.290Z,24.77
2018-10-16T14:09:08.777Z,24.69
2018-10-16T14:11:39.126Z,24.60
2018-10-16T14:14:09.497Z,24.69
2018-10-16T14:16:39.838Z,24.65
2018-10-16T14:19:10.159Z,24.51
2018-10-16T14:21:40.521Z,24.53
2018-10-16T14:24:10.865Z,24.51
2018-10-16T14:26:41.223Z,24.27
2018-10-16T14:29:11.564Z,24.30
2018-10-16T14:31:41.997Z,24.29
2018-10-16T14:34:12.260Z,24.14
2018-10-16T14:36:42.712Z,24.19
2018-10-16T14:39:13.766Z,24.03
2018-10-16T14:41:44.156Z,23.90
2018-10-16T14:44:14.544Z,23.79
2018-10-16T14:46:44.940Z,23.80
2018-10-16T14:49:15.488Z,23.77
2018-10-16T14:51:45.911Z,23.68
2018-10-16T14:54:16.246Z,23.57
2018-10-16T14:56:46.626Z,23.61
2018-10-16T14:59:16.920Z,23.41
2018-10-16T15:01:47.294Z,23.48
2018-10-16T15:04:17.700Z,23.44
2018-10-16T15:06:48.032Z,23.47
2018-10-16T15:09:18.385Z,23.48
2018-10-16T15:11:48.739Z,23.18
2018-10-16T15:14:19.077Z,23.22
2018-10-16T15:16:50.448Z,23.05
2018-10-16T15:19:20.974Z,23.01
2018-10-16T15:21:51.236Z,23.05
2018-10-16T15:24:21.591Z,23.04
2018-10-16T15:26:52.127Z,22.85
2018-10-16T15:29:22.390Z,22.83
2018-10-16T15:31:52.710Z,22.80
2018-10-16T15:34:23.010Z,22.73
2018-10-16T15:36:53.444Z,22.68
2018-10-16T15:39:23.765Z,22.43
2018-10-16T15:41:54.100Z,22.28
2018-10-16T15:44:24.411Z,22.23
2018-10-16T15:46:55.790Z,22.07
2018-10-16T15:49:26.087Z,21.91
2018-10-16T15:51:56.536Z,21.86
2018-10-16T15:54:26.825Z,21.64
2018-10-16T15:56:57.184Z,21.38
2018-10-16T15:59:27.491Z,21.32
2018-10-16T16:01:57.895Z,21.31
2018-10-16T16:04:28.169Z,20.94
2018-10-16T16:06:58.486Z,20.80
2018-10-16T16:09:28.794Z,20.82
2018-10-16T16:11:59.112Z,20.48
2018-10-16T16:14:29.619Z,20.45
2018-10-16T16:17:00.075Z,20.42
2018-10-16T16:19:30.442Z,20.48
2018-10-16T16:22:00.772Z,20.37
2018-10-16T16:24:31.079Z,20.30
2018-10-16T16:27:01.471Z,19.92
2018-10-16T16:29:31.880Z,19.84
2018-10-16T16:32:02.261Z,19.85
2018-10-16T16:34:32.538Z,19.63
2018-10-16T16:37:02.884Z,19.24
2018-10-16T16:39:33.193Z,19.37
2018-10-16T16:42:03.585Z,19.37
2018-10-16T16:44:33.919Z,19.24
2018-10-16T16:47:04.229Z,19.19
2018-10-16T16:49:34.530Z,19.03
2018-10-16T16:52:04.897Z,18.94
2018-10-16T16:54:35.203Z,18.96
2018-10-16T16:57:05.814Z,18.75
2018-10-16T16:59:36.194Z,18.72
2018-10-16T17:02:06.712Z,18.64
2018-10-16T17:04:37.261Z,18.41
2018-10-16T17:07:06.509Z,18.37
2018-10-16T17:09:35.946Z,22.08
2018-10-16T17:12:05.270Z,23.25
2018-10-16T17:14:34.655Z,23.45
2018-10-16T17:17:03.873Z,23.58
2018-10-16T17:19:33.136Z,23.53
2018-10-16T17:22:02.366Z,23.57
2018-10-16T17:24:31.502Z,23.59
2018-10-16T17:27:00.739Z,23.53
2018-10-16T17:29:29.935Z,23.55
2018-10-16T17:31:59.129Z,23.58
2018-10-16T17:34:28.321Z,23.52
2018-10-16T17:36:57.621Z,23.53
2018-10-16T17:39:26.948Z,23.51
2018-10-16T17:41:56.500Z,23.52
2018-10-16T17:44:25.621Z,23.45
2018-10-16T17:46:54.970Z,23.44
2018-10-16T17:49:25.019Z,23.39
2018-10-16T17:51:54.238Z,23.49
2018-10-16T17:54:23.414Z,23.43
2018-10-16T17:56:52.679Z,23.40
2018-10-16T17:59:21.830Z,23.40
2018-10-16T18:01:51.027Z,23.42
2018-10-16T18:04:20.294Z,23.45
2018-10-16T18:06:49.522Z,23.48
2018-10-16T18:09:18.680Z,23.46
2018-10-16T18:11:47.987Z,23.43
2018-10-16T18:14:17.079Z,23.35
2018-10-16T18:16:46.308Z,23.38
2018-10-16T18:19:15.550Z,23.35
2018-10-16T18:21:44.767Z,23.48
2018-10-16T18:24:15.258Z,23.47
2018-10-16T18:26:44.682Z,23.46
2018-10-16T18:29:14.208Z,23.44
2018-10-16T18:31:43.455Z,23.34
2018-10-16T18:34:12.783Z,23.32
2018-10-16T18:36:41.970Z,23.25
2018-10-16T18:39:13.829Z,23.30
2018-10-16T18:41:43.287Z,23.32
2018-10-16T18:44:12.467Z,23.26
2018-10-16T18:46:41.726Z,23.32
2018-10-16T18:49:11.154Z,23.26
2018-10-16T18:51:40.328Z,23.28
2018-10-16T18:54:09.765Z,23.31
2018-10-16T18:56:39.350Z,23.31
2018-10-16T18:59:08.938Z,23.28
2018-10-16T19:01:38.269Z,23.20
2018-10-16T19:04:07.929Z,23.28
2018-10-16T19:06:37.513Z,23.29
2018-10-16T19:09:09.910Z,23.30
2018-10-16T19:11:38.957Z,23.27
2018-10-16T19:14:08.287Z,23.23
2018-10-16T19:16:37.697Z,23.19
2018-10-16T19:19:07.058Z,23.20
2018-10-16T19:21:36.236Z,23.16
2018-10-16T19:24:05.562Z,23.15
2018-10-16T19:26:35.011Z,23.13
2018-10-16T19:29:04.478Z,23.03
2018-10-16T19:31:33.745Z,22.97
2018-10-16T19:34:02.959Z,22.88
2018-10-16T19:36:32.195Z,22.83
2018-10-16T19:39:02.151Z,22.73
2018-10-16T19:41:31.444Z,22.69
2018-10-16T19:44:00.645Z,22.54
2018-10-16T19:46:30.548Z,22.51
2018-10-16T19:49:00.676Z,22.46
2018-10-16T19:51:30.213Z,22.38
2018-10-16T19:54:00.193Z,22.29
2018-10-16T19:56:29.467Z,22.24
2018-10-16T19:58:59.504Z,22.16
2018-10-16T20:01:28.523Z,22.07
2018-10-16T20:03:57.855Z,22.02
2018-10-16T20:06:27.298Z,21.94
2018-10-16T20:08:56.546Z,21.73
2018-10-16T20:11:26.029Z,21.70
2018-10-16T20:13:55.215Z,21.71
2018-10-16T20:16:26.165Z,21.69
2018-10-16T20:18:55.543Z,21.64
2018-10-16T20:21:24.762Z,21.57
2018-10-16T20:23:53.965Z,21.55
2018-10-16T20:26:23.154Z,21.44
2018-10-16T20:28:52.444Z,21.45
2018-10-16T20:31:21.638Z,21.42
2018-10-16T20:33:50.899Z,21.38
2018-10-16T20:36:20.115Z,21.31
2018-10-16T20:38:49.461Z,21.29
2018-10-16T20:41:18.728Z,21.22
2018-10-16T20:43:48.052Z,21.24
2018-10-16T20:46:17.326Z,21.22
2018-10-16T20:48:46.551Z,21.12
2018-10-16T20:51:15.705Z,21.19
2018-10-16T20:53:44.934Z,21.30
2018-10-16T20:56:14.098Z,21.24
2018-10-16T20:58:43.349Z,21.15
2018-10-16T21:01:13.146Z,21.11
2018-10-16T21:03:42.338Z,21.02
2018-10-16T21:06:11.730Z,21.06
2018-10-16T21:08:40.908Z,20.98
2018-10-16T21:11:10.075Z,20.96
2018-10-16T21:13:39.500Z,21.03
2018-10-16T21:16:08.673Z,20.97
2018-10-16T21:18:37.964Z,21.01
2018-10-16T21:21:07.329Z,21.00
2018-10-16T21:23:36.543Z,21.00
2018-10-16T21:26:05.906Z,20.86
2018-10-16T21:28:35.107Z,20.99
2018-10-16T21:31:04.390Z,20.93
2018-10-16T21:33:33.589Z,20.91
2018-10-16T21:36:02.659Z,20.91
2018-10-16T21:38:31.823Z,20.90
2018-10-16T21:41:01.037Z,20.85
2018-10-16T21:43:30.193Z,20.84
2018-10-16T21:45:59.420Z,20.85
2018-10-16T21:48:28.601Z,20.81
2018-10-16T21:50:57.821Z,20.83
2018-10-16T21:53:27.008Z,20.80
2018-10-16T21:55:56.215Z,20.79
2018-10-16T21:58:25.372Z,20.75
2018-10-16T22:01:11.096Z,20.77
2018-10-16T22:03:41.116Z,20.73
2018-10-16T22:06:10.528Z,20.76
2018-10-16T22:08:39.974Z,20.75
2018-10-16T22:11:09.118Z,20.69
2018-10-16T22:13:38.337Z,20.64
2018-10-16T22:16:07.495Z,20.66
2018-10-16T22:18:36.748Z,20.64
2018-10-16T22:21:05.895Z,20.56
2018-10-16T22:23:35.054Z,20.58
2018-10-16T22:26:04.227Z,20.53
2018-10-16T22:28:33.387Z,20.53
2018-10-16T22:31:02.686Z,20.43
2018-10-16T22:33:31.930Z,20.50
2018-10-16T22:36:01.012Z,20.45
2018-10-16T22:38:30.193Z,20.50
2018-10-16T22:40:59.499Z,20.45
2018-10-16T22:43:28.563Z,20.41
2018-10-16T22:45:57.813Z,20.38
2018-10-16T22:48:26.976Z,20.33
2018-10-16T22:50:56.215Z,20.34
2018-10-16T22:53:25.383Z,20.31
2018-10-16T22:55:54.614Z,20.28
2018-10-16T22:58:23.860Z,20.35
2018-10-16T23:00:53.121Z,20.37
2018-10-16T23:03:22.271Z,20.33
2018-10-16T23:05:51.498Z,20.34
2018-10-16T23:08:20.677Z,20.34
2018-10-16T23:10:49.851Z,20.28
2018-10-16T23:13:19.076Z,20.27
2018-10-16T23:15:48.246Z,20.33
2018-10-16T23:18:17.477Z,20.35
2018-10-16T23:20:46.728Z,20.30
2018-10-16T23:23:16.091Z,20.28
2018-10-16T23:25:45.193Z,20.24
2018-10-16T23:28:14.388Z,20.25
2018-10-16T23:30:43.560Z,20.24
2018-10-16T23:33:12.790Z,20.21
2018-10-16T23:35:42.052Z,20.28
2018-10-16T23:38:11.175Z,20.26
2018-10-16T23:40:40.341Z,20.28
2018-10-16T23:43:09.643Z,20.25
2018-10-16T23:45:38.782Z,20.18
2018-10-16T23:48:07.975Z,20.24
2018-10-16T23:50:37.153Z,20.19
2018-10-16T23:53:06.439Z,20.16
2018-10-16T23:55:35.557Z,20.21
2018-10-16T23:58:04.767Z,20.26
